Time;durP1;ratioP1;P1;durP2;ratioP2;P2;SDS_P1;SDS_P2;PMS_P1;PMS_P2;Temp;Humidity;BMP_temperature;BMP_pressure;BME280_temperature;BME280_humidity;BME280_pressure;Samples;Min_cycle;Max_cycle;Signal;HPM_P1;HPM_P2
2021/12/11 00:00:33;;;;;;;26.25;14.55;;;-1.20;99.90;;;;;;5035677;28;20055;-74
2021/12/11 00:03:07;;;;;;;25.45;14.57;;;-1.30;99.90;;;;;;5035514;28;20128;-72
2021/12/11 00:05:35;;;;;;;22.95;13.70;;;-1.30;99.90;;;;;;5052281;28;20491;-72
2021/12/11 00:08:03;;;;;;;23.10;13.60;;;-1.30;99.90;;;;;;5052244;28;20049;-72
2021/12/11 00:10:34;;;;;;;24.45;13.55;;;-1.30;99.90;;;;;;5052302;28;20094;-76
2021/12/11 00:13:03;;;;;;;23.17;13.32;;;-1.30;99.90;;;;;;5035158;28;20048;-72
2021/12/11 00:15:35;;;;;;;23.10;12.70;;;-1.30;99.90;;;;;;5038678;28;20483;-72
2021/12/11 00:18:05;;;;;;;23.20;13.00;;;-1.30;99.90;;;;;;5056458;28;20044;-71
2021/12/11 00:20:34;;;;;;;20.67;12.30;;;-1.30;99.90;;;;;;5055803;28;20048;-71
2021/12/11 00:23:01;;;;;;;23.02;13.20;;;-1.40;99.90;;;;;;5055894;28;20037;-71
2021/12/11 00:25:27;;;;;;;23.08;13.10;;;-1.40;99.90;;;;;;5055952;28;20091;-72
2021/12/11 00:28:02;;;;;;;22.13;12.85;;;-1.40;99.90;;;;;;5039782;28;20041;-72
2021/12/11 00:30:33;;;;;;;20.98;13.57;;;-1.40;99.90;;;;;;5056542;28;20121;-71
2021/12/11 00:33:02;;;;;;;24.52;13.75;;;-1.40;99.90;;;;;;5039705;28;20041;-72
2021/12/11 00:35:29;;;;;;;22.40;13.75;;;-1.40;99.90;;;;;;5039361;28;20128;-72
2021/12/11 00:38:02;;;;;;;22.10;13.43;;;-1.40;99.90;;;;;;5055743;28;20045;-72
2021/12/11 00:40:28;;;;;;;56.50;27.58;;;-1.40;99.90;;;;;;5039644;28;20056;-71
2021/12/11 00:42:57;;;;;;;141.70;73.53;;;-1.40;99.90;;;;;;5055970;28;20043;-74
2021/12/11 00:45:27;;;;;;;80.30;43.17;;;-1.40;99.90;;;;;;5055329;28;20070;-72
2021/12/11 00:47:54;;;;;;;;;;;-1.40;99.90;;;;;;5039788;28;20032;-71
2021/12/11 00:50:25;;;;;;;31.85;18.75;;;-1.40;99.90;;;;;;5072122;28;20389;-70
2021/12/11 00:53:19;;;;;;;28.90;16.88;;;-1.40;99.90;;;;;;5039506;28;20048;-72
2021/12/11 00:55:55;;;;;;;28.25;15.85;;;-1.40;99.90;;;;;;5072365;28;20044;-71
2021/12/11 00:58:28;;;;;;;26.83;15.10;;;-1.40;99.90;;;;;;5055496;28;20402;-75
2021/12/11 01:01:05;;;;;;;26.10;15.93;;;-1.40;99.90;;;;;;5038047;28;20127;-72
2021/12/11 01:03:46;;;;;;;26.92;15.68;;;-1.40;99.90;;;;;;5054853;28;20484;-74
2021/12/11 01:06:21;;;;;;;27.92;15.82;;;-1.40;99.90;;;;;;5055298;28;20048;-72
2021/12/11 01:08:55;;;;;;;26.15;15.40;;;-1.50;99.90;;;;;;5055281;28;20047;-71
2021/12/11 01:11:23;;;;;;;25.60;14.93;;;-1.40;99.90;;;;;;5055087;28;20049;-72
2021/12/11 01:14:09;;;;;;;23.23;14.07;;;-1.50;99.90;;;;;;5055515;28;20041;-75
2021/12/11 01:16:36;;;;;;;24.40;14.93;;;-1.50;99.90;;;;;;5038633;28;20048;-72
2021/12/11 01:19:07;;;;;;;22.90;14.23;;;-1.50;99.90;;;;;;5055412;28;20076;-71
2021/12/11 01:24:26;;;;;;;22.10;14.30;;;-1.50;99.90;;;;;;5054832;28;20052;-71
2021/12/11 01:26:53;;;;;;;26.25;14.57;;;-1.60;99.90;;;;;;5038738;28;20047;-72
2021/12/11 01:29:20;;;;;;;26.00;15.18;;;-1.60;99.90;;;;;;5055029;28;20387;-71
2021/12/11 01:31:47;;;;;;;24.85;14.73;;;-1.50;99.90;;;;;;5054930;28;20055;-72
2021/12/11 01:34:14;;;;;;;25.58;15.20;;;-1.60;99.90;;;;;;5053913;28;20041;-72
2021/12/11 01:36:40;;;;;;;25.95;14.95;;;-1.60;99.90;;;;;;5037868;28;20475;-71
2021/12/11 01:39:13;;;;;;;25.98;14.93;;;-1.60;99.90;;;;;;5054996;28;20045;-72
2021/12/11 01:41:40;;;;;;;23.48;14.13;;;-1.60;99.90;;;;;;5037695;28;20469;-72
2021/12/11 01:44:11;;;;;;;27.38;15.07;;;-1.60;99.90;;;;;;5054665;28;20045;-72
2021/12/11 01:46:38;;;;;;;26.23;15.80;;;-1.60;99.90;;;;;;5054639;28;20087;-71
2021/12/11 01:49:08;;;;;;;28.13;15.00;;;-1.60;99.90;;;;;;5036739;28;20044;-71
2021/12/11 01:51:39;;;;;;;25.02;14.98;;;-1.60;99.90;;;;;;5037046;28;20479;-72
2021/12/11 01:54:19;;;;;;;25.30;15.30;;;-1.60;99.90;;;;;;5036957;28;20080;-74
2021/12/11 01:56:52;;;;;;;26.48;15.40;;;-1.70;99.90;;;;;;5019972;28;20049;-73
2021/12/11 01:59:25;;;;;;;28.88;16.95;;;-1.60;99.90;;;;;;5052566;28;20403;-72
2021/12/11 02:02:03;;;;;;;32.78;20.42;;;-1.70;99.90;;;;;;5036880;28;20048;-70
2021/12/11 02:04:32;;;;;;;34.80;18.23;;;-1.60;99.90;;;;;;5036479;28;20106;-72
2021/12/11 02:07:14;;;;;;;30.83;18.75;;;-1.70;99.90;;;;;;5036793;28;20048;-72
2021/12/11 02:09:44;;;;;;;29.92;17.35;;;-1.70;99.90;;;;;;5053223;28;20476;-75
2021/12/11 02:12:12;;;;;;;34.25;16.92;;;-1.70;99.90;;;;;;5020650;28;20059;-73
2021/12/11 02:14:43;;;;;;;28.08;15.38;;;-1.70;99.90;;;;;;5037006;28;20059;-72
2021/12/11 02:17:32;;;;;;;27.40;15.32;;;-1.70;99.90;;;;;;5020353;28;20510;-72
2021/12/11 02:20:00;;;;;;;26.65;15.15;;;-1.70;99.90;;;;;;5059639;28;20057;-73
2021/12/11 02:22:31;;;;;;;25.48;14.82;;;-1.70;99.90;;;;;;5053475;28;20041;-74
2021/12/11 02:25:01;;;;;;;24.17;15.15;;;-1.70;99.90;;;;;;5054249;28;20040;-72
2021/12/11 02:27:33;;;;;;;30.42;15.32;;;-1.80;99.90;;;;;;5054106;28;20138;-71
2021/12/11 02:30:20;;;;;;;26.40;14.88;;;-1.80;99.90;;;;;;5054146;28;20067;-72
2021/12/11 02:33:15;;;;;;;23.88;14.40;;;-1.80;99.90;;;;;;5053254;28;20045;-74
2021/12/11 02:35:51;;;;;;;25.08;14.50;;;-1.80;99.90;;;;;;5047868;28;20441;-72
2021/12/11 02:38:32;;;;;;;22.80;14.13;;;-1.80;99.90;;;;;;5053524;28;20089;-74
2021/12/11 02:41:05;;;;;;;24.67;13.77;;;-1.80;99.90;;;;;;5052680;28;20032;-74
2021/12/11 02:43:43;;;;;;;23.85;14.32;;;-1.80;99.90;;;;;;5053639;28;20143;-72
2021/12/11 02:46:30;;;;;;;24.10;13.90;;;-1.80;99.90;;;;;;5053218;28;20033;-72
2021/12/11 02:49:02;;;;;;;26.88;14.70;;;-1.90;99.90;;;;;;5053739;28;20044;-72
2021/12/11 02:51:37;;;;;;;25.77;14.88;;;-1.90;99.90;;;;;;5038389;28;20089;-76
2021/12/11 02:54:34;;;;;;;24.52;14.02;;;-1.90;99.90;;;;;;5053382;28;20051;-72
2021/12/11 02:57:15;;;;;;;25.55;14.15;;;-1.90;99.90;;;;;;5053510;28;20502;-71
2021/12/11 02:59:44;;;;;;;25.17;14.68;;;-1.90;99.90;;;;;;5053152;28;20494;-72
2021/12/11 03:02:22;;;;;;;22.50;14.07;;;-2.00;99.90;;;;;;5053781;28;20471;-72
2021/12/11 03:04:54;;;;;;;23.25;14.20;;;-2.00;99.90;;;;;;5053756;28;20128;-73
2021/12/11 03:07:37;;;;;;;22.85;14.00;;;-2.00;99.90;;;;;;5053541;28;20048;-73
2021/12/11 03:10:09;;;;;;;26.83;14.70;;;-2.00;99.90;;;;;;5052975;28;20047;-71
2021/12/11 03:12:34;;;;;;;25.35;14.15;;;-2.00;99.90;;;;;;5052709;28;20371;-70
2021/12/11 03:15:00;;;;;;;26.27;14.65;;;-2.00;99.90;;;;;;5036541;28;20045;-71
2021/12/11 03:17:27;;;;;;;27.73;15.00;;;-2.00;99.90;;;;;;5052945;28;20043;-72
2021/12/11 03:19:54;;;;;;;26.05;14.95;;;-2.00;99.90;;;;;;5035893;28;20045;-75
2021/12/11 03:22:27;;;;;;;29.38;15.90;;;-2.10;99.90;;;;;;5036026;28;20078;-72
2021/12/11 03:24:53;;;;;;;25.55;14.80;;;-2.00;99.90;;;;;;5052529;28;20041;-72
2021/12/11 03:27:19;;;;;;;31.63;17.20;;;-2.10;99.90;;;;;;5036269;28;20493;-71
2021/12/11 03:29:46;;;;;;;30.27;15.88;;;-2.10;99.90;;;;;;5052966;28;20047;-71
2021/12/11 03:32:13;;;;;;;30.50;16.88;;;-2.00;99.90;;;;;;5036319;28;20037;-74
2021/12/11 03:34:41;;;;;;;33.55;18.02;;;-2.10;99.90;;;;;;5052237;28;20049;-72
2021/12/11 03:37:09;;;;;;;31.65;17.45;;;-2.10;99.90;;;;;;5052466;28;20037;-73
2021/12/11 03:39:39;;;;;;;32.70;17.88;;;-2.10;99.90;;;;;;5052144;28;20389;-71
2021/12/11 03:42:10;;;;;;;32.30;17.35;;;-2.00;99.90;;;;;;5053136;28;20033;-72
2021/12/11 03:44:36;;;;;;;27.70;16.52;;;-2.00;99.90;;;;;;5036442;28;20049;-71
2021/12/11 03:47:08;;;;;;;30.10;17.23;;;-2.10;99.90;;;;;;5051980;28;20471;-75
2021/12/11 03:49:34;;;;;;;31.42;17.17;;;-2.10;99.90;;;;;;5031604;28;20133;-72
2021/12/11 03:52:00;;;;;;;28.52;17.35;;;-2.10;99.90;;;;;;5032216;28;20132;-72
2021/12/11 03:54:30;;;;;;;33.70;17.52;;;-2.10;99.90;;;;;;5016526;28;20391;-72
2021/12/11 03:56:57;;;;;;;27.10;16.48;;;-2.10;99.90;;;;;;5049062;28;20530;-71
2021/12/11 03:59:24;;;;;;;28.70;16.70;;;-2.10;99.90;;;;;;5032608;28;20048;-71
2021/12/11 04:01:56;;;;;;;28.30;16.75;;;-2.10;99.90;;;;;;5063504;28;20092;-71
2021/12/11 04:04:44;;;;;;;26.67;16.50;;;-2.10;99.90;;;;;;5052087;28;20044;-71
2021/12/11 04:07:13;;;;;;;27.23;16.10;;;-2.10;99.90;;;;;;5069098;28;20055;-74
2021/12/11 04:09:40;;;;;;;26.30;15.45;;;-2.10;99.90;;;;;;5036119;28;20049;-71
2021/12/11 04:12:08;;;;;;;27.90;16.15;;;-2.20;99.90;;;;;;5068575;28;20056;-71
2021/12/11 04:14:37;;;;;;;26.33;15.60;;;-2.20;99.90;;;;;;5052287;28;20045;-72
2021/12/11 04:17:04;;;;;;;22.70;13.95;;;-2.20;99.90;;;;;;5051450;28;20387;-71
2021/12/11 04:19:31;;;;;;;25.02;14.55;;;-2.20;99.90;;;;;;5052072;28;20037;-71
2021/12/11 04:21:58;;;;;;;23.70;13.95;;;-2.20;99.90;;;;;;5035504;28;20089;-75
2021/12/11 04:24:27;;;;;;;23.98;14.20;;;-2.20;99.90;;;;;;5052491;28;20033;-71
2021/12/11 04:26:56;;;;;;;21.58;13.30;;;-2.20;99.90;;;;;;5052164;28;20103;-71
2021/12/11 04:29:22;;;;;;;24.95;13.93;;;-2.20;99.90;;;;;;5051842;28;20032;-73
2021/12/11 04:31:50;;;;;;;20.42;12.60;;;-2.20;99.90;;;;;;5051724;28;20056;-71
2021/12/11 04:34:18;;;;;;;22.70;13.45;;;-2.30;99.90;;;;;;5051689;28;20056;-72
2021/12/11 04:36:49;;;;;;;24.23;13.33;;;-2.30;99.90;;;;;;5052071;28;20037;-73
2021/12/11 04:39:18;;;;;;;26.13;13.32;;;-2.30;99.90;;;;;;5051625;28;20323;-71
2021/12/11 04:42:07;;;;;;;27.42;14.02;;;-2.30;99.90;;;;;;5035102;28;20037;-74
2021/12/11 04:44:39;;;;;;;27.40;15.53;;;-2.40;99.90;;;;;;5052269;28;20059;-72
2021/12/11 04:47:10;;;;;;;32.72;17.58;;;-2.50;99.90;;;;;;5051722;28;20452;-71
2021/12/11 04:49:44;;;;;;;32.00;15.93;;;-2.50;99.90;;;;;;5051918;28;20091;-71
2021/12/11 04:52:18;;;;;;;28.27;15.40;;;-2.50;99.90;;;;;;5035097;28;20040;-72
2021/12/11 04:55:07;;;;;;;28.60;15.65;;;-2.50;99.90;;;;;;5051579;28;20052;-72
2021/12/11 05:00:22;;;;;;;29.05;15.70;;;-2.40;99.90;;;;;;5053394;28;20479;-74
2021/12/11 05:13:16;;;;;;;30.75;17.48;;;-2.40;99.90;;;;;;5054623;28;20048;-72
2021/12/11 05:15:46;;;;;;;31.20;18.35;;;-2.40;99.90;;;;;;5055017;28;20043;-72
2021/12/11 05:18:15;;;;;;;28.17;17.02;;;-2.40;99.90;;;;;;5055841;28;20044;-71
2021/12/11 05:20:44;;;;;;;31.53;18.30;;;-2.40;99.90;;;;;;5038410;28;20387;-71
2021/12/11 05:23:12;;;;;;;36.70;19.55;;;-2.40;99.90;;;;;;5054750;28;20039;-75
2021/12/11 05:25:38;;;;;;;35.03;19.30;;;-2.40;99.90;;;;;;5054969;28;20049;-71
2021/12/11 05:28:04;;;;;;;33.00;18.80;;;-2.40;99.90;;;;;;5038126;28;20143;-72
2021/12/11 05:30:40;;;;;;;34.13;18.50;;;-2.40;99.90;;;;;;5038636;28;20102;-74
2021/12/11 05:33:06;;;;;;;31.13;18.17;;;-2.30;99.90;;;;;;5055059;28;20045;-71
2021/12/11 05:35:35;;;;;;;32.60;16.70;;;-2.40;99.90;;;;;;5054910;28;20045;-71
2021/12/11 05:38:04;;;;;;;33.03;17.60;;;-2.30;99.90;;;;;;5054526;28;20040;-71
2021/12/11 05:40:33;;;;;;;29.63;16.75;;;-2.30;99.90;;;;;;5054524;28;20349;-71
2021/12/11 05:42:59;;;;;;;29.88;16.45;;;-2.40;99.90;;;;;;5054662;28;20462;-71
2021/12/11 05:45:25;;;;;;;27.35;16.50;;;-2.40;99.90;;;;;;5054683;28;20407;-72
2021/12/11 05:47:52;;;;;;;29.50;16.85;;;-2.40;99.90;;;;;;5037776;28;20493;-74
2021/12/11 05:50:33;;;;;;;26.58;15.90;;;-2.40;99.90;;;;;;5054386;28;20395;-71
2021/12/11 05:53:00;;;;;;;28.05;15.77;;;-2.40;99.90;;;;;;5054055;28;20424;-71
2021/12/11 05:55:28;;;;;;;24.90;15.10;;;-2.40;99.90;;;;;;5054636;28;20382;-71
2021/12/11 05:57:57;;;;;;;31.35;17.48;;;-2.50;99.90;;;;;;5054775;28;20083;-75
2021/12/11 06:00:33;;;;;;;33.33;18.35;;;-2.50;99.90;;;;;;5054449;28;20040;-71
2021/12/11 06:03:01;;;;;;;42.05;21.10;;;-2.50;99.90;;;;;;5037459;28;20360;-71
2021/12/11 06:05:29;;;;;;;45.00;22.30;;;-2.50;99.90;;;;;;5054216;28;20083;-71
2021/12/11 06:07:57;;;;;;;37.13;20.92;;;-2.50;99.90;;;;;;5053996;28;20049;-71
2021/12/11 06:10:23;;;;;;;38.83;20.27;;;-2.40;99.90;;;;;;5054077;28;20045;-75
2021/12/11 06:12:51;;;;;;;38.92;20.50;;;-2.40;99.90;;;;;;5053184;28;20556;-71
2021/12/11 06:15:18;;;;;;;40.55;21.08;;;-2.40;99.90;;;;;;5053920;28;20372;-74
2021/12/11 06:17:47;;;;;;;41.58;20.27;;;-2.40;99.90;;;;;;5054857;28;20544;-71
2021/12/11 06:20:24;;;;;;;31.23;18.50;;;-2.40;99.90;;;;;;5053328;28;20041;-74
2021/12/11 06:22:50;;;;;;;36.67;19.63;;;-2.40;99.90;;;;;;5054391;28;20032;-74
2021/12/11 06:25:20;;;;;;;35.17;19.65;;;-2.40;99.90;;;;;;5037590;28;20107;-71
2021/12/11 06:27:46;;;;;;;36.50;19.02;;;-2.40;99.90;;;;;;5054242;28;20128;-71
2021/12/11 06:30:13;;;;;;;34.95;18.65;;;-2.40;99.90;;;;;;5053427;28;20498;-73
2021/12/11 06:32:40;;;;;;;32.53;17.55;;;-2.40;99.90;;;;;;5053224;28;20045;-71
2021/12/11 06:35:20;;;;;;;33.90;18.50;;;-2.40;99.90;;;;;;5053110;28;20503;-73
2021/12/11 06:37:46;;;;;;;32.85;17.55;;;-2.40;99.90;;;;;;5053971;28;20040;-70
2021/12/11 06:40:12;;;;;;;31.75;17.70;;;-2.40;99.90;;;;;;5053780;28;20040;-72
2021/12/11 06:42:39;;;;;;;32.92;18.15;;;-2.40;99.90;;;;;;5036960;28;20037;-70
2021/12/11 06:45:05;;;;;;;34.67;18.35;;;-2.40;99.90;;;;;;5053405;28;20041;-71
2021/12/11 06:47:32;;;;;;;33.72;17.52;;;-2.40;99.90;;;;;;5053419;28;20459;-71
2021/12/11 06:49:58;;;;;;;32.28;17.83;;;-2.40;99.90;;;;;;5053720;28;20052;-71
2021/12/11 06:52:25;;;;;;;31.23;17.35;;;-2.40;99.90;;;;;;5053557;28;20391;-75
2021/12/11 06:54:51;;;;;;;29.98;17.02;;;-2.40;99.90;;;;;;5053447;28;20045;-73
2021/12/11 06:57:18;;;;;;;30.77;17.65;;;-2.50;99.90;;;;;;5053529;28;20036;-71
2021/12/11 06:59:44;;;;;;;32.15;17.77;;;-2.50;99.90;;;;;;5052467;28;20120;-76
2021/12/11 07:02:10;;;;;;;30.15;16.75;;;-2.50;99.90;;;;;;5052889;28;20041;-75
2021/12/11 07:04:37;;;;;;;31.77;17.30;;;-2.50;99.90;;;;;;5053461;28;20190;-73
2021/12/11 07:07:03;;;;;;;29.80;17.67;;;-2.50;99.90;;;;;;5053312;28;20049;-71
2021/12/11 07:09:30;;;;;;;30.38;17.48;;;-2.50;99.90;;;;;;5036420;28;20383;-75
2021/12/11 07:11:57;;;;;;;34.00;17.13;;;-2.50;99.90;;;;;;5052949;28;20041;-71
2021/12/11 07:14:27;;;;;;;40.63;21.38;;;-2.50;99.90;;;;;;5052634;28;20090;-71
2021/12/11 07:16:52;;;;;;;36.08;20.58;;;-2.60;99.90;;;;;;5053330;28;20044;-74
2021/12/11 07:19:18;;;;;;;33.47;20.42;;;-2.50;99.90;;;;;;5036143;28;20048;-71
2021/12/11 07:21:49;;;;;;;40.03;22.33;;;-2.50;99.90;;;;;;5052825;28;20467;-70
2021/12/11 07:24:15;;;;;;;47.22;27.25;;;-2.50;99.90;;;;;;5052717;28;20037;-71
2021/12/11 07:26:41;;;;;;;42.72;24.55;;;-2.50;99.90;;;;;;5052736;28;20041;-71
2021/12/11 07:29:10;;;;;;;39.33;24.20;;;-2.60;99.90;;;;;;5035556;28;20047;-71
2021/12/11 07:31:37;;;;;;;;;;;-2.60;99.90;;;;;;5053349;28;20109;-73
2021/12/11 07:34:03;;;;;;;38.03;22.45;;;-2.60;99.90;;;;;;5052486;28;19917;-71
2021/12/11 07:36:29;;;;;;;36.42;21.80;;;-2.60;99.90;;;;;;5052535;28;20086;-71
2021/12/11 07:38:56;;;;;;;37.13;23.73;;;-2.60;99.90;;;;;;5052700;28;20036;-70
2021/12/11 07:41:22;;;;;;;38.45;24.02;;;-2.60;99.90;;;;;;5052196;28;20430;-73
2021/12/11 07:43:49;;;;;;;43.03;24.77;;;-2.60;99.90;;;;;;5052322;28;20036;-71
2021/12/11 07:46:19;;;;;;;40.17;25.45;;;-2.70;99.90;;;;;;5053108;28;20099;-71
2021/12/11 07:48:46;;;;;;;37.35;23.52;;;-2.70;99.90;;;;;;5035857;28;20045;-71
2021/12/11 07:51:12;;;;;;;35.13;22.30;;;-2.60;99.90;;;;;;5052607;28;20073;-70
2021/12/11 07:53:38;;;;;;;38.60;23.30;;;-2.60;99.90;;;;;;5052470;28;20051;-70
2021/12/11 07:56:04;;;;;;;40.40;24.00;;;-2.60;99.90;;;;;;5035483;28;20386;-74
2021/12/11 07:58:32;;;;;;;37.58;22.42;;;-2.60;99.90;;;;;;5053160;28;20041;-71
2021/12/11 08:00:58;;;;;;;39.72;21.38;;;-2.60;99.90;;;;;;5052518;28;20052;-75
2021/12/11 08:03:24;;;;;;;38.78;21.02;;;-2.60;99.90;;;;;;5035478;28;20467;-71
2021/12/11 08:05:51;;;;;;;34.00;19.60;;;-2.50;99.90;;;;;;5035823;28;20051;-71
2021/12/11 08:08:18;;;;;;;34.63;19.63;;;-2.60;99.90;;;;;;5051545;28;20045;-71
2021/12/11 08:10:46;;;;;;;33.15;18.40;;;-2.50;99.90;;;;;;5052285;28;20522;-71
2021/12/11 08:13:13;;;;;;;35.85;19.00;;;-2.50;99.90;;;;;;5052336;28;20045;-71
2021/12/11 08:15:39;;;;;;;32.58;18.13;;;-2.50;99.90;;;;;;5052584;28;20044;-71
2021/12/11 08:18:08;;;;;;;31.35;17.90;;;-2.50;99.90;;;;;;5050042;28;20662;-71
2021/12/11 08:20:35;;;;;;;33.00;18.00;;;-2.50;99.90;;;;;;5047509;28;20047;-74
2021/12/11 08:23:03;;;;;;;33.22;18.65;;;-2.50;99.90;;;;;;5050679;28;20473;-71
2021/12/11 08:25:31;;;;;;;31.42;18.35;;;-2.50;99.90;;;;;;5051577;28;20039;-74
2021/12/11 08:27:58;;;;;;;29.65;17.85;;;-2.50;99.90;;;;;;5035729;28;20051;-70
2021/12/11 08:30:27;;;;;;;35.38;18.95;;;-2.50;99.90;;;;;;5052315;28;20052;-70
2021/12/11 08:32:53;;;;;;;35.13;19.42;;;-2.50;99.90;;;;;;5052268;28;20102;-70
2021/12/11 08:35:19;;;;;;;36.95;20.25;;;-2.40;99.90;;;;;;5049117;28;20421;-72
2021/12/11 08:37:48;;;;;;;36.47;19.83;;;-2.50;99.90;;;;;;5038199;28;20044;-76
2021/12/11 08:40:21;;;;;;;35.25;20.67;;;-2.40;99.90;;;;;;5054566;28;20044;-72
2021/12/11 08:42:48;;;;;;;40.88;25.40;;;-2.50;99.90;;;;;;5050466;28;20041;-71
2021/12/11 08:45:22;;;;;;;43.58;23.65;;;-2.40;99.90;;;;;;5055991;28;20044;-71
2021/12/11 08:47:51;;;;;;;51.78;28.77;;;-2.30;99.90;;;;;;5054907;28;20071;-69
2021/12/11 08:50:21;;;;;;;47.45;28.50;;;-2.30;99.90;;;;;;5055417;28;20045;-74
2021/12/11 08:52:49;;;;;;;;;;;-2.20;99.90;;;;;;5039565;28;20040;-71
2021/12/11 08:55:33;;;;;;;51.15;28.40;;;-2.20;99.90;;;;;;5056358;28;19916;-76
2021/12/11 08:57:59;;;;;;;45.50;27.40;;;-2.10;99.90;;;;;;5055926;28;20052;-71
2021/12/11 09:00:48;;;;;;;59.20;32.50;;;-2.10;99.90;;;;;;5039182;28;20059;-74
2021/12/11 09:03:24;;;;;;;87.95;46.40;;;-2.00;99.90;;;;;;5055472;28;20033;-76
2021/12/11 09:06:01;;;;;;;86.95;43.65;;;-1.90;99.90;;;;;;5038761;28;20049;-72
2021/12/11 09:08:32;;;;;;;81.05;43.35;;;-1.80;99.90;;;;;;5038834;28;20041;-71
2021/12/11 09:11:00;;;;;;;86.43;44.00;;;-1.70;99.90;;;;;;5038948;28;20048;-72
2021/12/11 09:13:42;;;;;;;94.43;44.22;;;-1.60;99.90;;;;;;5038479;28;20051;-71
2021/12/11 09:16:16;;;;;;;91.35;43.47;;;-1.40;99.90;;;;;;5054059;28;20037;-72
2021/12/11 09:18:48;;;;;;;79.55;39.63;;;-1.30;99.90;;;;;;5054464;28;20124;-71
2021/12/11 09:21:24;;;;;;;82.68;40.15;;;-1.30;99.90;;;;;;5054557;28;20037;-72
2021/12/11 09:24:10;;;;;;;79.78;40.05;;;-1.20;99.90;;;;;;5054060;28;20040;-72
2021/12/11 09:26:48;;;;;;;80.70;38.88;;;-1.10;99.90;;;;;;5037636;28;20127;-72
2021/12/11 09:29:25;;;;;;;88.63;40.38;;;-1.00;99.90;;;;;;5037381;28;20033;-74
2021/12/11 09:32:13;;;;;;;79.32;38.35;;;-1.00;99.90;;;;;;5054438;28;20124;-72
2021/12/11 09:34:43;;;;;;;85.90;39.42;;;-0.90;99.90;;;;;;5053757;28;20052;-72
2021/12/11 09:37:09;;;;;;;76.22;38.08;;;-0.80;99.90;;;;;;5044713;28;20531;-73
2021/12/11 09:39:43;;;;;;;81.60;39.40;;;-0.70;99.90;;;;;;5044305;28;20044;-71
2021/12/11 09:42:08;;;;;;;78.82;38.53;;;-0.50;99.90;;;;;;5044235;28;20483;-72
2021/12/11 09:44:40;;;;;;;84.97;40.75;;;-0.40;99.90;;;;;;5042742;28;20041;-72
2021/12/11 09:47:11;;;;;;;80.90;37.95;;;-0.30;99.90;;;;;;5042097;28;20036;-71
2021/12/11 09:49:43;;;;;;;74.43;37.53;;;-0.30;99.90;;;;;;5033672;28;20045;-72
2021/12/11 09:52:23;;;;;;;76.22;39.00;;;-0.30;99.90;;;;;;5045249;28;20081;-72
2021/12/11 09:55:09;;;;;;;;;;;-0.30;99.90;;;;;;5052622;28;20040;-73
2021/12/11 09:57:38;;;;;;;71.70;38.60;;;-0.30;99.90;;;;;;5056202;28;19967;-72
2021/12/11 10:00:32;;;;;;;78.32;39.60;;;-0.20;99.90;;;;;;5033604;28;20080;-73
2021/12/11 10:03:00;;;;;;;79.40;38.65;;;-0.10;99.90;;;;;;5032831;28;20553;-72
2021/12/11 10:05:34;;;;;;;77.50;40.15;;;0.00;99.90;;;;;;5033912;28;20077;-74
2021/12/11 10:08:31;;;;;;;75.35;40.67;;;0.00;99.90;;;;;;5033834;28;20041;-74
2021/12/11 10:11:02;;;;;;;77.38;40.70;;;0.20;99.90;;;;;;5042194;28;20127;-74
2021/12/11 10:13:34;;;;;;;85.57;43.15;;;0.30;99.90;;;;;;5053318;28;20064;-71
2021/12/11 10:16:00;;;;;;;81.63;42.53;;;0.40;99.90;;;;;;5053529;28;20045;-71
2021/12/11 10:18:29;;;;;;;79.82;41.92;;;0.50;99.90;;;;;;5053337;28;20037;-71
2021/12/11 10:21:05;;;;;;;77.65;40.90;;;0.60;99.90;;;;;;5036869;28;20047;-71
2021/12/11 10:23:34;;;;;;;74.03;40.88;;;0.70;99.90;;;;;;5054464;28;20122;-75
2021/12/11 10:26:02;;;;;;;79.38;43.05;;;0.80;99.90;;;;;;5054103;28;20045;-72
2021/12/11 10:28:29;;;;;;;81.78;42.08;;;1.20;99.90;;;;;;5054045;28;20550;-75
2021/12/11 10:31:09;;;;;;;67.30;38.22;;;1.80;99.90;;;;;;5036071;28;20068;-72
2021/12/11 10:33:36;;;;;;;66.60;37.35;;;2.20;99.90;;;;;;5055829;28;20060;-75
2021/12/11 10:36:07;;;;;;;61.90;36.22;;;2.60;99.90;;;;;;5054374;28;20048;-73
2021/12/11 10:38:33;;;;;;;59.92;34.65;;;2.50;99.90;;;;;;5053636;28;20476;-73
2021/12/11 10:41:01;;;;;;;63.65;35.50;;;2.60;99.90;;;;;;5053836;28;20554;-73
2021/12/11 10:43:36;;;;;;;62.38;34.47;;;2.90;99.90;;;;;;5053373;28;20136;-71
2021/12/11 10:46:05;;;;;;;60.33;34.75;;;3.10;99.90;;;;;;5052777;28;20406;-73
2021/12/11 10:48:33;;;;;;;63.10;35.47;;;3.00;99.90;;;;;;5053467;28;20459;-72
2021/12/11 10:51:04;;;;;;;59.05;33.20;;;2.70;99.90;;;;;;5053433;28;20048;-72
2021/12/11 10:53:34;;;;;;;56.45;32.83;;;2.60;99.90;;;;;;5053398;28;20463;-72
2021/12/11 10:56:01;;;;;;;;;;;2.60;99.90;;;;;;5053868;28;20391;-72
2021/12/11 10:58:35;;;;;;;59.50;32.63;;;2.60;99.90;;;;;;5086412;28;20347;-74
2021/12/11 11:01:06;;;;;;;59.60;33.65;;;2.50;99.90;;;;;;5054604;28;20049;-76
2021/12/11 11:03:36;;;;;;;57.25;33.08;;;2.40;99.90;;;;;;5050914;28;20077;-74
2021/12/11 11:06:03;;;;;;;55.10;33.20;;;2.40;99.90;;;;;;5033535;28;20049;-74
2021/12/11 11:08:29;;;;;;;60.72;32.72;;;2.40;99.90;;;;;;5033051;28;20365;-74
2021/12/11 11:11:04;;;;;;;59.25;33.47;;;2.40;99.90;;;;;;5032822;28;20038;-73
2021/12/11 11:13:31;;;;;;;63.08;32.72;;;2.50;99.90;;;;;;5033389;28;20422;-74
2021/12/11 11:15:57;;;;;;;54.03;31.42;;;2.90;99.90;;;;;;5033046;28;20487;-74
2021/12/11 11:18:24;;;;;;;53.85;31.50;;;3.00;99.90;;;;;;5033045;28;20038;-77
2021/12/11 11:21:00;;;;;;;60.75;31.35;;;3.00;99.90;;;;;;5049462;28;20041;-76
2021/12/11 11:23:26;;;;;;;57.35;32.25;;;3.00;99.90;;;;;;5032642;28;20049;-74
2021/12/11 11:25:55;;;;;;;53.03;31.92;;;3.00;99.90;;;;;;5033137;28;20195;-74
2021/12/11 11:28:23;;;;;;;52.47;30.33;;;3.10;99.90;;;;;;5032988;28;20124;-75
2021/12/11 11:30:56;;;;;;;50.57;30.20;;;3.40;99.90;;;;;;5049999;28;20041;-74
2021/12/11 11:33:23;;;;;;;53.05;30.30;;;3.70;99.90;;;;;;5052132;28;20060;-77
2021/12/11 11:35:50;;;;;;;52.22;31.05;;;3.90;99.90;;;;;;5052477;28;20045;-75
2021/12/11 11:38:24;;;;;;;51.17;31.63;;;4.10;99.90;;;;;;5052701;28;20045;-74
2021/12/11 11:40:55;;;;;;;54.90;33.95;;;4.20;99.90;;;;;;5052714;28;20131;-75
2021/12/11 11:43:22;;;;;;;59.75;33.33;;;4.30;99.90;;;;;;5052699;28;20033;-75
2021/12/11 11:45:52;;;;;;;57.70;36.13;;;4.60;99.90;;;;;;5035835;28;20164;-75
2021/12/11 11:48:20;;;;;;;56.80;35.20;;;4.90;99.90;;;;;;5052243;28;20055;-72
2021/12/11 11:50:49;;;;;;;54.72;31.95;;;4.90;99.90;;;;;;5053110;28;20041;-73
2021/12/11 11:53:17;;;;;;;54.72;31.88;;;5.10;99.90;;;;;;5051895;28;20106;-72
2021/12/11 11:55:48;;;;;;;49.10;30.52;;;5.10;99.90;;;;;;5018669;28;20052;-73
2021/12/11 11:58:14;;;;;;;51.03;29.77;;;4.90;99.90;;;;;;5034872;28;20084;-74
2021/12/11 12:00:48;;;;;;;48.67;30.80;;;4.70;99.90;;;;;;5034827;28;20036;-77
2021/12/11 12:03:17;;;;;;;47.80;29.95;;;4.70;99.90;;;;;;5034156;28;20376;-73
2021/12/11 12:05:46;;;;;;;46.53;28.17;;;4.80;99.90;;;;;;5034808;28;20048;-72
2021/12/11 12:08:15;;;;;;;47.65;28.58;;;4.90;99.90;;;;;;5034687;28;20060;-72
2021/12/11 12:10:43;;;;;;;50.40;28.97;;;5.20;99.90;;;;;;5034189;28;20045;-75
2021/12/11 12:13:09;;;;;;;44.55;28.02;;;5.40;99.90;;;;;;5034589;28;20123;-72
2021/12/11 12:15:42;;;;;;;44.58;28.20;;;5.60;99.90;;;;;;5034268;28;20063;-73
2021/12/11 12:18:08;;;;;;;47.35;27.40;;;5.40;99.90;;;;;;5035103;28;20064;-77
2021/12/11 12:20:35;;;;;;;46.70;28.30;;;5.40;99.90;;;;;;5017877;28;20112;-71
2021/12/11 12:23:01;;;;;;;48.67;28.27;;;5.50;99.90;;;;;;5034430;28;20044;-71
2021/12/11 12:25:29;;;;;;;48.90;27.20;;;5.40;99.90;;;;;;5052548;28;20037;-73
2021/12/11 12:27:55;;;;;;;44.05;26.73;;;5.40;99.90;;;;;;5051992;28;20055;-72
2021/12/11 12:30:23;;;;;;;47.67;26.67;;;5.10;99.90;;;;;;5051721;28;20072;-73
2021/12/11 12:32:52;;;;;;;45.72;26.83;;;4.80;99.90;;;;;;5051875;28;20471;-72
2021/12/11 12:35:18;;;;;;;43.88;26.65;;;4.70;99.90;;;;;;5050373;28;20483;-73
2021/12/11 12:37:45;;;;;;;53.20;28.77;;;4.70;99.90;;;;;;5051386;28;20048;-71
2021/12/11 12:40:17;;;;;;;45.85;28.20;;;5.00;99.90;;;;;;5050603;28;20056;-71
2021/12/11 12:42:53;;;;;;;49.83;28.42;;;5.30;99.90;;;;;;5051177;28;20048;-71
2021/12/11 12:45:32;;;;;;;52.22;27.35;;;5.30;99.90;;;;;;5050463;28;20048;-71
2021/12/11 12:48:04;;;;;;;47.77;27.07;;;5.10;99.90;;;;;;5049645;28;20123;-71
2021/12/11 12:50:34;;;;;;;46.20;27.77;;;5.00;99.90;;;;;;5050664;28;20044;-72
2021/12/11 12:53:00;;;;;;;47.85;25.42;;;5.30;99.90;;;;;;5051292;28;20055;-72
2021/12/11 12:55:36;;;;;;;51.33;27.95;;;5.50;99.90;;;;;;5050682;28;20167;-72
2021/12/11 12:58:09;;;;;;;47.10;27.08;;;5.60;99.90;;;;;;5050701;28;20387;-74
2021/12/11 13:00:38;;;;;;;45.45;26.30;;;5.60;99.90;;;;;;5051158;28;20041;-73
2021/12/11 13:03:08;;;;;;;51.92;24.80;;;5.70;99.90;;;;;;5050974;28;20033;-71